Time;durP1;ratioP1;P1;durP2;ratioP2;P2;SDS_P1;SDS_P2;PMS_P1;PMS_P2;Temp;Humidity;BMP_temperature;BMP_pressure;BME280_temperature;BME280_humidity;BME280_pressure;Samples;Min_cycle;Max_cycle;Signal;HPM_P1;HPM_P2
2023/11/12 10:39:14;;;;;;;6.78;1.92;;;27.50;42.70;;;;;;4173454;27;20913;-64
2023/11/12 10:41:16;;;;;;;7.78;1.67;;;24.40;44.80;;;;;;4143458;28;20060;-58
2023/11/12 10:43:18;;;;;;;7.78;1.75;;;23.10;48.00;;;;;;4142422;28;20523;-55
2023/11/12 10:45:20;;;;;;;6.05;1.90;;;22.40;49.30;;;;;;4154655;28;20161;-69
2023/11/12 10:47:24;;;;;;;10.63;1.80;;;22.10;50.00;;;;;;4152566;28;20054;-60
2023/11/12 10:49:27;;;;;;;8.52;1.98;;;21.80;50.70;;;;;;4145014;28;20080;-59
2023/11/12 10:51:29;;;;;;;7.68;1.60;;;21.70;51.00;;;;;;4143907;28;20093;-59
2023/11/12 10:53:33;;;;;;;4.68;1.80;;;21.70;51.20;;;;;;4144103;28;20049;-60
2023/11/12 10:55:39;;;;;;;9.05;1.92;;;21.70;51.30;;;;;;4154441;28;20108;-60
2023/11/12 10:57:44;;;;;;;6.30;2.15;;;21.60;51.30;;;;;;4157663;28;20041;-60
2023/11/12 10:59:46;;;;;;;8.40;2.40;;;21.60;51.30;;;;;;4144160;28;20061;-59
2023/11/12 11:01:47;;;;;;;8.52;2.10;;;21.60;51.40;;;;;;4158959;28;20103;-60
2023/11/12 11:03:51;;;;;;;14.43;2.35;;;21.50;51.40;;;;;;4160138;28;20145;-60
2023/11/12 11:05:54;;;;;;;6.50;1.90;;;21.50;51.50;;;;;;4169919;28;20483;-59
2023/11/12 11:07:56;;;;;;;10.65;2.20;;;21.40;51.60;;;;;;4168214;28;20115;-59
2023/11/12 11:09:58;;;;;;;6.05;2.25;;;21.40;51.70;;;;;;4159923;28;20045;-60
2023/11/12 11:12:01;;;;;;;8.85;2.22;;;21.30;51.70;;;;;;4160471;28;20128;-60
2023/11/12 11:14:21;;;;;;;6.68;1.90;;;21.30;51.80;;;;;;4167434;28;20054;-60
2023/11/12 11:16:46;;;;;;;8.30;2.47;;;21.30;51.90;;;;;;4174609;28;20049;-60
2023/11/12 11:18:52;;;;;;;;;;;21.30;51.90;;;;;;4174832;28;20128;-60
2023/11/12 11:21:12;;;;;;;8.35;2.08;;;21.20;51.90;;;;;;4176473;28;19925;-60
2023/11/12 11:23:39;;;;;;;9.82;2.30;;;21.20;52.00;;;;;;4176439;28;20513;-60
2023/11/12 11:25:41;;;;;;;9.55;3.05;;;21.20;52.10;;;;;;4152791;28;20470;-57
2023/11/12 11:27:47;;;;;;;9.65;2.55;;;21.20;52.10;;;;;;4144357;28;20058;-57
2023/11/12 11:30:08;;;;;;;11.80;2.70;;;21.20;52.00;;;;;;4165852;28;20053;-57
2023/11/12 16:47:08;;;;;;;45.55;22.48;;;23.90;52.00;;;;;;4218252;27;20830;-66
2023/11/12 16:49:10;;;;;;;46.92;22.75;;;23.10;51.00;;;;;;4103603;28;20486;-66
2023/11/12 16:51:12;;;;;;;42.97;21.30;;;22.80;51.40;;;;;;4129207;28;65209;-68
2023/11/12 16:53:14;;;;;;;12.85;6.03;;;22.60;51.90;;;;;;4115502;28;20102;-59
2023/11/12 16:55:16;;;;;;;7.60;3.33;;;22.60;50.60;;;;;;4173810;28;20426;-76
2023/11/12 16:57:18;;;;;;;2.75;0.60;;;21.90;43.90;;;;;;4168603;28;20052;-76
2023/11/12 16:59:22;;;;;;;1.90;0.90;;;18.20;40.80;;;;;;4175858;28;20475;-76
2023/11/12 17:01:24;;;;;;;1.83;0.80;;;16.00;45.40;;;;;;4177347;28;20045;-76
2023/11/12 17:03:27;;;;;;;1.25;0.60;;;14.50;49.10;;;;;;4176875;28;20493;-77
2023/11/12 17:05:29;;;;;;;7.75;4.78;;;13.40;52.10;;;;;;4177099;28;20102;-76
2023/11/12 17:07:31;;;;;;;5.97;3.28;;;12.40;55.10;;;;;;4176674;28;20115;-77
2023/11/12 17:09:33;;;;;;;3.35;1.50;;;11.70;57.10;;;;;;4176237;28;20042;-77
2023/11/12 17:11:35;;;;;;;4.43;2.40;;;10.90;59.00;;;;;;4168609;28;20053;-77
2023/11/12 17:13:36;;;;;;;4.22;1.70;;;10.40;61.20;;;;;;4160629;28;20096;-77
2023/11/12 17:15:38;;;;;;;2.65;1.13;;;9.60;63.90;;;;;;4160622;28;20054;-77
2023/11/12 17:17:38;;;;;;;4.80;1.63;;;9.10;66.10;;;;;;4158667;28;20104;-77
2023/11/12 17:19:42;;;;;;;3.28;1.40;;;8.80;68.20;;;;;;4173004;28;20057;-77
2023/11/12 17:21:47;;;;;;;3.35;1.10;;;8.70;69.20;;;;;;4176328;28;20053;-77
2023/11/12 17:23:50;;;;;;;7.35;3.45;;;8.40;70.20;;;;;;4177056;28;20752;-77
2023/11/12 17:25:52;;;;;;;3.72;1.73;;;8.20;72.10;;;;;;4176718;28;20053;-77
2023/11/12 17:27:56;;;;;;;3.60;1.95;;;8.00;73.00;;;;;;4176554;28;20053;-78
2023/11/12 17:29:57;;;;;;;3.53;1.40;;;7.90;74.30;;;;;;4177038;28;20049;-77
2023/11/12 17:31:59;;;;;;;4.47;1.95;;;7.80;74.90;;;;;;4176915;28;20057;-77
2023/11/12 17:34:01;;;;;;;9.15;4.82;;;7.60;75.90;;;;;;4176029;28;20057;-77
2023/11/12 17:36:05;;;;;;;5.63;2.90;;;7.60;76.50;;;;;;4176961;28;20095;-76
2023/11/12 17:38:07;;;;;;;10.40;6.38;;;7.40;76.70;;;;;;4175163;28;20144;-77
2023/11/12 17:40:10;;;;;;;13.93;9.05;;;7.40;77.60;;;;;;4160240;28;20089;-77
2023/11/12 17:42:11;;;;;;;9.68;6.32;;;7.30;78.80;;;;;;4163673;28;20084;-77
2023/11/12 17:44:13;;;;;;;11.95;7.53;;;7.30;79.00;;;;;;4175914;28;20041;-77
2023/11/12 17:46:15;;;;;;;5.60;3.40;;;7.20;80.00;;;;;;4176067;28;20115;-77
2023/11/12 17:48:18;;;;;;;5.65;2.40;;;7.10;79.80;;;;;;4176413;28;20072;-77
2023/11/12 17:50:19;;;;;;;4.53;2.13;;;7.10;79.80;;;;;;4173931;28;20049;-78
2023/11/12 17:52:22;;;;;;;3.88;2.10;;;7.00;80.70;;;;;;4175302;28;20126;-77
2023/11/12 17:54:24;;;;;;;3.75;1.92;;;6.90;81.10;;;;;;4176524;28;20494;-76
2023/11/12 17:56:26;;;;;;;3.92;2.05;;;6.90;81.20;;;;;;4175649;28;20103;-77
2023/11/12 17:58:28;;;;;;;5.40;2.30;;;6.80;81.90;;;;;;4158068;28;20041;-78
2023/11/12 18:00:30;;;;;;;7.70;4.50;;;6.80;82.40;;;;;;4161450;28;20104;-77
2023/11/12 18:02:33;;;;;;;5.00;2.95;;;6.70;83.90;;;;;;4165392;28;20057;-77
2023/11/12 18:04:34;;;;;;;5.00;2.33;;;6.60;84.60;;;;;;4165119;28;20048;-77
2023/11/12 18:06:37;;;;;;;3.45;2.03;;;6.50;85.90;;;;;;4164645;28;20085;-77
2023/11/12 18:08:42;;;;;;;4.63;1.83;;;6.40;86.40;;;;;;4148595;28;20049;-76
2023/11/12 18:10:44;;;;;;;4.10;2.00;;;6.40;86.10;;;;;;4154838;28;20073;-76
2023/11/12 18:12:46;;;;;;;4.45;2.08;;;6.30;87.00;;;;;;4162655;28;20103;-79
2023/11/12 18:14:48;;;;;;;4.45;2.00;;;6.20;87.70;;;;;;4164860;28;20096;-79
2023/11/12 18:16:50;;;;;;;4.30;2.28;;;6.20;88.10;;;;;;4162840;28;20057;-79
2023/11/12 18:18:54;;;;;;;4.45;2.10;;;6.10;88.40;;;;;;4163248;28;20037;-79
2023/11/12 18:20:56;;;;;;;5.78;2.30;;;6.10;88.40;;;;;;4148701;28;20050;-77
2023/11/12 18:22:57;;;;;;;4.20;2.17;;;6.10;88.00;;;;;;4156172;28;20119;-78
2023/11/12 18:25:00;;;;;;;6.30;3.10;;;6.10;88.00;;;;;;4164477;28;20045;-79
2023/11/12 18:27:02;;;;;;;5.50;2.80;;;6.00;88.70;;;;;;4164803;28;20060;-77
2023/11/12 18:29:05;;;;;;;5.50;2.60;;;6.00;88.70;;;;;;4162279;28;20116;-79
2023/11/12 18:31:07;;;;;;;8.95;5.32;;;6.00;89.20;;;;;;4156807;28;20092;-79
2023/11/12 18:33:12;;;;;;;5.80;2.92;;;5.90;90.00;;;;;;4152412;28;20380;-79
2023/11/12 18:35:14;;;;;;;5.72;3.25;;;5.90;89.90;;;;;;4115619;28;20049;-78
2023/11/12 18:37:16;;;;;;;5.38;3.10;;;5.90;90.20;;;;;;4157398;28;20534;-78
2023/11/12 18:39:18;;;;;;;5.03;3.08;;;6.00;90.20;;;;;;4144711;28;20046;-76
2023/11/12 18:41:21;;;;;;;5.13;3.28;;;6.00;90.20;;;;;;4147217;28;20057;-77
2023/11/12 18:43:24;;;;;;;15.80;9.02;;;6.00;90.10;;;;;;4148305;28;20049;-79
2023/11/12 18:45:28;;;;;;;7.30;4.10;;;5.90;90.10;;;;;;4147018;28;20140;-79
2023/11/12 18:47:31;;;;;;;3.70;2.10;;;6.00;90.20;;;;;;4148474;28;20431;-78
2023/11/12 18:49:33;;;;;;;5.75;2.40;;;5.90;89.70;;;;;;4147825;28;20112;-78
2023/11/12 18:51:34;;;;;;;4.18;1.92;;;5.90;89.10;;;;;;4142810;28;20081;-77
2023/11/12 18:53:36;;;;;;;5.30;1.98;;;5.80;90.00;;;;;;4148051;28;20050;-78
2023/11/12 18:55:38;;;;;;;4.55;2.17;;;5.90;90.10;;;;;;4148662;28;20054;-78
2023/11/12 18:57:42;;;;;;;3.65;2.03;;;5.90;90.20;;;;;;4148093;28;20096;-77
2023/11/12 18:59:44;;;;;;;4.75;1.90;;;5.90;90.20;;;;;;4146137;28;20057;-78
2023/11/12 19:01:46;;;;;;;4.43;2.30;;;5.90;90.20;;;;;;4146999;28;20050;-77
2023/11/12 19:03:46;;;;;;;7.75;2.55;;;5.80;90.20;;;;;;4147881;28;20449;-78
2023/11/12 19:05:49;;;;;;;5.75;2.92;;;5.80;90.30;;;;;;4148044;28;20513;-77
2023/11/12 19:07:51;;;;;;;3.92;2.58;;;5.80;90.40;;;;;;4142310;28;20054;-77
2023/11/12 19:09:51;;;;;;;5.15;3.00;;;5.80;90.40;;;;;;4137200;28;20046;-78
2023/11/12 19:11:53;;;;;;;4.32;2.33;;;5.80;90.50;;;;;;4145623;28;20096;-85
2023/11/12 19:13:57;;;;;;;3.80;2.20;;;5.70;90.50;;;;;;4130406;28;20558;-83
2023/11/12 19:15:59;;;;;;;3.53;1.90;;;5.70;90.50;;;;;;4142935;28;20041;-83
2023/11/12 19:18:01;;;;;;;4.93;2.40;;;5.80;90.80;;;;;;4147690;28;20471;-86
2023/11/12 19:20:04;;;;;;;5.45;2.50;;;5.80;91.00;;;;;;4147046;28;20055;-84
2023/11/12 19:22:06;;;;;;;3.92;2.10;;;5.80;90.70;;;;;;4147656;28;20045;-84
2023/11/12 19:24:09;;;;;;;4.18;2.35;;;5.80;90.70;;;;;;4146893;28;20050;-86
2023/11/12 19:26:11;;;;;;;4.15;2.33;;;5.80;90.80;;;;;;4145798;28;20467;-78
2023/11/12 19:28:14;;;;;;;4.28;2.10;;;5.80;91.40;;;;;;4143990;28;20046;-79
2023/11/12 19:30:17;;;;;;;3.67;2.22;;;5.80;91.20;;;;;;4145488;28;20141;-79
2023/11/12 19:32:20;;;;;;;4.68;2.83;;;5.80;91.40;;;;;;4143387;28;20496;-80
2023/11/12 19:34:22;;;;;;;6.18;3.58;;;5.80;91.50;;;;;;4145519;28;20060;-80
2023/11/12 19:36:23;;;;;;;5.70;2.95;;;5.80;91.60;;;;;;4145345;28;20049;-80
2023/11/12 19:38:26;;;;;;;4.78;2.92;;;5.80;91.60;;;;;;4145546;28;20045;-80
2023/11/12 19:40:28;;;;;;;5.13;3.22;;;5.80;91.50;;;;;;4145485;28;20054;-79
2023/11/12 19:42:29;;;;;;;4.85;3.03;;;5.80;91.60;;;;;;4143953;28;20498;-80
2023/11/12 19:44:31;;;;;;;4.78;3.30;;;5.80;91.70;;;;;;4135173;28;20057;-80
2023/11/12 19:46:35;;;;;;;6.50;4.20;;;5.90;91.90;;;;;;4145485;28;20097;-80
2023/11/12 19:48:37;;;;;;;7.10;4.85;;;5.90;91.90;;;;;;4145502;28;20641;-79
2023/11/12 19:50:40;;;;;;;7.45;4.70;;;5.80;91.90;;;;;;4145680;28;20734;-79
2023/11/12 19:52:43;;;;;;;6.72;4.47;;;5.80;92.00;;;;;;4138591;28;20072;-79
2023/11/12 19:54:45;;;;;;;8.25;5.10;;;5.80;92.30;;;;;;4129073;28;20074;-79
2023/11/12 19:56:47;;;;;;;7.20;5.10;;;5.70;92.50;;;;;;4133634;28;20057;-79
2023/11/12 19:58:49;;;;;;;9.13;5.63;;;5.70;92.70;;;;;;4145546;28;20077;-80
2023/11/12 20:00:52;;;;;;;7.60;4.90;;;5.70;92.90;;;;;;4145244;28;20104;-80
2023/11/12 20:02:55;;;;;;;7.28;4.90;;;5.70;92.90;;;;;;4144733;28;20498;-81
2023/11/12 20:04:57;;;;;;;6.85;4.88;;;5.70;92.90;;;;;;4145232;28;20050;-78
2023/11/12 20:06:59;;;;;;;7.60;5.40;;;5.70;92.80;;;;;;4145720;28;20491;-78
2023/11/12 20:09:01;;;;;;;6.72;4.18;;;5.70;92.60;;;;;;4145483;28;20056;-79
2023/11/12 20:11:03;;;;;;;6.57;4.75;;;5.80;92.50;;;;;;4144631;28;20475;-78
2023/11/12 20:13:04;;;;;;;6.47;4.53;;;5.80;92.30;;;;;;4144546;28;20048;-78
2023/11/12 20:15:08;;;;;;;7.57;4.93;;;5.80;92.30;;;;;;4145591;28;20491;-78
2023/11/12 20:17:11;;;;;;;6.63;4.82;;;5.80;92.50;;;;;;4143316;28;20050;-79
2023/11/12 20:19:15;;;;;;;7.43;5.00;;;5.80;92.60;;;;;;4145429;28;20054;-80
2023/11/12 20:21:17;;;;;;;8.30;5.50;;;5.80;92.80;;;;;;4145099;28;20439;-79
2023/11/12 20:23:20;;;;;;;7.65;4.65;;;5.80;92.60;;;;;;4142883;28;20058;-79
2023/11/12 20:25:24;;;;;;;7.78;4.90;;;5.80;92.70;;;;;;4133828;28;20128;-79
2023/11/12 20:27:27;;;;;;;8.02;5.05;;;5.80;92.50;;;;;;4144620;28;20838;-79
2023/11/12 20:29:27;;;;;;;7.53;5.30;;;5.90;92.50;;;;;;4145136;28;20467;-79
2023/11/12 20:31:29;;;;;;;7.43;5.15;;;5.90;92.10;;;;;;4142612;28;20049;-78
2023/11/12 20:33:31;;;;;;;8.27;5.10;;;6.00;92.10;;;;;;4144560;28;20054;-79
2023/11/12 20:35:33;;;;;;;10.00;6.40;;;6.00;92.10;;;;;;4144993;28;20488;-84
2023/11/12 20:37:35;;;;;;;10.05;6.38;;;6.00;91.90;;;;;;4146772;28;20054;-85
2023/11/12 20:39:38;;;;;;;8.85;5.95;;;6.00;91.80;;;;;;4146989;28;20057;-87
2023/11/12 20:41:42;;;;;;;10.63;6.13;;;6.00;92.10;;;;;;4144970;28;20053;-87
2023/11/12 20:43:44;;;;;;;10.88;6.78;;;5.90;91.90;;;;;;4138914;28;20411;-87
2023/11/12 20:45:47;;;;;;;10.85;7.55;;;5.90;92.40;;;;;;4148473;28;20062;-90
2023/11/12 20:47:52;;;;;;;12.02;7.43;;;5.80;92.90;;;;;;4148829;28;20458;-87
2023/11/12 20:49:54;;;;;;;10.75;7.68;;;5.80;92.70;;;;;;4148558;28;20046;-86
2023/11/12 20:51:58;;;;;;;9.95;7.32;;;5.90;92.40;;;;;;4147822;28;20067;-86
2023/11/12 20:54:00;;;;;;;8.98;6.30;;;5.90;92.20;;;;;;4164005;28;20069;-87
2023/11/12 20:56:02;;;;;;;10.45;7.13;;;6.00;92.00;;;;;;4149172;28;20445;-90
2023/11/12 20:58:06;;;;;;;9.82;6.80;;;5.90;92.20;;;;;;4146385;28;20498;-85
2023/11/12 21:00:09;;;;;;;9.18;6.20;;;6.00;91.90;;;;;;4147179;28;20048;-83
2023/11/12 21:02:11;;;;;;;8.80;6.30;;;6.10;91.90;;;;;;4146386;28;20092;-84
2023/11/12 21:04:11;;;;;;;10.98;7.20;;;6.10;91.80;;;;;;4146938;28;20507;-84
2023/11/12 21:06:13;;;;;;;9.55;6.53;;;6.10;91.70;;;;;;4147016;28;20062;-83
2023/11/12 21:08:17;;;;;;;9.25;6.18;;;6.00;91.90;;;;;;4146677;28;20050;-83
2023/11/12 21:10:21;;;;;;;12.30;8.23;;;6.00;92.00;;;;;;4146758;28;20789;-84
2023/11/12 21:12:23;;;;;;;21.65;12.15;;;6.00;92.00;;;;;;4146885;28;20152;-84
2023/11/12 21:14:24;;;;;;;26.42;13.45;;;6.10;91.90;;;;;;4146410;28;20057;-83
2023/11/12 21:16:26;;;;;;;14.77;8.60;;;6.10;91.80;;;;;;4144475;28;20133;-83
2023/11/12 21:18:28;;;;;;;10.77;6.78;;;6.10;91.90;;;;;;4146736;28;20112;-83
2023/11/12 21:20:32;;;;;;;9.23;5.32;;;6.10;92.00;;;;;;4146664;28;20112;-84
2023/11/12 21:22:36;;;;;;;8.75;5.32;;;6.10;91.80;;;;;;4143676;28;20050;-84
2023/11/12 21:24:42;;;;;;;6.53;4.50;;;6.10;91.70;;;;;;4147054;28;20048;-85
2023/11/12 21:26:45;;;;;;;7.88;4.55;;;6.20;91.80;;;;;;4146847;28;20062;-85
2023/11/12 21:28:47;;;;;;;6.65;4.32;;;6.20;91.70;;;;;;4146969;28;20042;-86
2023/11/12 21:30:49;;;;;;;6.13;4.10;;;6.20;91.60;;;;;;4146676;28;20057;-84
2023/11/12 21:32:51;;;;;;;8.45;3.85;;;6.20;91.50;;;;;;4148724;28;20045;-86
2023/11/12 21:34:52;;;;;;;5.20;3.67;;;6.20;91.30;;;;;;4149904;28;20486;-84
2023/11/12 21:36:53;;;;;;;6.18;4.05;;;6.20;91.40;;;;;;4150864;28;20119;-85
2023/11/12 21:38:55;;;;;;;6.82;4.32;;;6.20;91.60;;;;;;4151476;28;20054;-86
2023/11/12 21:40:59;;;;;;;5.53;3.63;;;6.20;91.70;;;;;;4150607;28;20053;-85
2023/11/12 21:43:00;;;;;;;6.40;3.38;;;6.20;91.80;;;;;;4151335;28;20495;-86
2023/11/12 21:45:03;;;;;;;6.07;4.10;;;6.20;91.80;;;;;;4151339;28;20065;-85
2023/11/12 21:47:05;;;;;;;6.28;4.00;;;6.20;91.80;;;;;;4147673;28;20058;-87
2023/11/12 21:49:08;;;;;;;6.43;4.07;;;6.20;91.80;;;;;;4151329;28;20052;-85
2023/11/12 21:51:10;;;;;;;7.72;4.47;;;6.20;91.70;;;;;;4139146;28;20073;-85
2023/11/12 21:53:12;;;;;;;8.65;5.72;;;6.20;91.90;;;;;;4138327;28;20120;-84
2023/11/12 21:55:14;;;;;;;9.60;5.80;;;6.20;91.90;;;;;;4151172;28;20049;-85
2023/11/12 21:57:17;;;;;;;8.68;5.78;;;6.20;91.90;;;;;;4150849;28;20057;-85
2023/11/12 21:59:19;;;;;;;8.90;5.88;;;6.20;91.80;;;;;;4150440;28;20084;-85
2023/11/12 22:01:23;;;;;;;8.32;5.50;;;6.20;91.90;;;;;;4150442;28;20052;-84
2023/11/12 22:03:26;;;;;;;9.30;5.90;;;6.20;91.80;;;;;;4149292;28;20061;-84
2023/11/12 22:05:28;;;;;;;8.90;6.05;;;6.30;91.80;;;;;;4150344;28;20049;-84
2023/11/12 22:07:29;;;;;;;7.22;4.88;;;6.20;91.70;;;;;;4150353;28;20096;-85
2023/11/12 22:09:31;;;;;;;7.45;4.95;;;6.20;91.80;;;;;;4150386;28;20050;-85
2023/11/12 22:11:33;;;;;;;10.00;5.90;;;6.20;91.70;;;;;;4150218;28;20061;-85
2023/11/12 22:13:36;;;;;;;7.95;5.20;;;6.10;91.90;;;;;;4149669;28;20054;-85
2023/11/12 22:15:38;;;;;;;8.10;6.10;;;6.10;92.10;;;;;;4150418;28;20054;-85
2023/11/12 22:17:40;;;;;;;8.57;5.47;;;6.10;92.10;;;;;;4148568;28;20058;-85
2023/11/12 22:19:42;;;;;;;10.15;6.40;;;6.10;92.20;;;;;;4150384;28;20046;-84
2023/11/12 22:21:44;;;;;;;9.23;6.57;;;6.10;92.20;;;;;;4150418;28;20053;-86
2023/11/12 22:23:45;;;;;;;10.38;6.57;;;6.00;92.20;;;;;;4150402;28;20057;-85
2023/11/12 22:25:48;;;;;;;8.65;5.72;;;6.10;92.30;;;;;;4150495;28;20054;-85
2023/11/12 22:27:50;;;;;;;8.10;5.53;;;6.10;92.40;;;;;;4148631;28;20050;-84
2023/11/12 22:29:53;;;;;;;7.70;5.32;;;6.20;92.40;;;;;;4134553;28;20050;-85
